Terminal Aerodrome Forecast
Issued by NWS Cleveland, OH

Home | Current Version | Previous Version | Graphics & Text | Print | Product List | Glossary On
Versions: 1 2 3 4 5 6 7 8 9 10 11 12 13 14 15 16 17 18 19 20
955
FTUS41 KCLE 062335
TAFERI
TAF
KERI 062335Z 0700/0724 16010KT 6SM -RA OVC025
     FM070300 21012G20KT P6SM OVC015
     FM070600 24015G25KT P6SM OVC025
     FM071500 23012G20KT P6SM OVC035=

USA.gov is the U.S. government's official web portal to all federal, state and local government web resources and services.